Aérodrome :
LOGIN :

S'inscrire | Disclaimer

   EN    FR    IT 

 










Légende :    VFR   VFR Marginal   IFR   IFR Intensif   IFR Très Intensif
Visi : 
Plafond : 
>= 8 km
>= 3000ft
5 à 8 km
1000 à 3000 ft
1500m à 5 km
500 à 1000 ft
800 à 1500m
200 à 500 ft
< 800m
< 200 ft
Symboles :   Orages  Brouillard  Fortes neiges  Fortes précipitations  Vent > 20 kt
SIGMETs :   Divers  Orages  Givrage  Turbulence  Onde Orograph.  Cendres Volcan.







- Altitude de l'aérodrome : 640 ft
- Code IATA : AOC


EDAC - Altenburg-Nobitz

DERNIER METAR :
  • 281020Z VRB06KT 9999 TSRA FEW040 OVC080 20/20 Q1001

METARs EXPIRÉS :
  • 280950Z 27006KT 9999 VCTS FEW040 OVC080 23/17 Q1001
  • 280920Z 28002KT CAVOK 24/17 Q1001
  • 280850Z 08004KT 010V160 CAVOK 24/17 Q1001
  • 280820Z 07004KT 360V170 CAVOK 23/17 Q1001
  • 280750Z 08003KT CAVOK 22/16 Q1001

TAF TAF EDAC
Valide du 28 à 09h jusqu'au 28 à 18h UTC


280800Z 2809/2818 10003KT CAVOK
TEMPO 2809/2818 SHRA BKN030CB
PROB40
TEMPO 2809/2817 20020G35KT 4000 TSRA BKN020CB
Pas de NOTAMs connus pour ce terrain.
1 SIGMET publié pour la FIR München (EDMM) :
 
Orages noyés dans la masse
EDMM SIGMET 2 VALID 281004/281200 EDZM
EDMM MUNCHEN FIR EMBD TS OBS WI N5155 E01209 - N5130 E01330 - N5030 E01245 - N5100 E01040 - N5123 E01027 - N5152 E01112 - N5155 E01209 TOP FL400 MOV N NC=



MET'MAP, la Météo Aéronautique d'un coup d'oeil ! - Copyright ORBIFLY Décembre 2007 - Disclaimer

ORBIFLY MET'MAP TEAM :

Programmation & Développement : Alexandra Zaïnal
Conception & Développement : Baudouin d'Aumeries
Co-Programmation & Développement : Marc-Olivier Méhu
Soutien technique & logistique : Manuel Goepfert

Contact : metmap@orbifly.com




SOURCES & CREDITS :

   NOAA